Terminal Aerodrome Forecast
Issued by NWS Salt Lake City, UT

Home | Current Version | Previous Version | Text Only | Print | Product List | Glossary On
Versions: 1 2 3 4 5 6 7 8 9 10 11
000
FTUS45 KSLC 181132
TAFCDC
TAF
KCDC 181132Z 1812/1912 17006KT P6SM BKN250
     FM181900 21010G18KT P6SM SCT250
     FM190100 19010KT P6SM SCT250
     FM190400 20014G22KT P6SM BKN200=

USA.gov is the U.S. government's official web portal to all federal, state and local government web resources and services.